Time;durP1;ratioP1;P1;durP2;ratioP2;P2;SDS_P1;SDS_P2;PMS_P1;PMS_P2;Temp;Humidity;BMP_temperature;BMP_pressure;BME280_temperature;BME280_humidity;BME280_pressure;Samples;Min_cycle;Max_cycle;Signal;HPM_P1;HPM_P2
2021/04/23 00:00:57;;;;;;;26.92;7.38;;;;;;;-143.98;100.00;68091.63;5066447;28;20427;-81
2021/04/23 00:03:39;;;;;;;27.42;8.70;;;;;;;-143.98;100.00;68091.63;5101271;28;20052;-80
2021/04/23 00:06:21;;;;;;;29.45;8.43;;;;;;;-143.98;100.00;68091.63;5084465;28;20060;-81
2021/04/23 00:09:03;;;;;;;28.30;9.05;;;;;;;-143.98;100.00;68091.63;5066956;28;20091;-81
2021/04/23 00:11:38;;;;;;;39.53;9.00;;;;;;;-143.98;100.00;68091.63;5084116;28;20056;-81
2021/04/23 00:14:09;;;;;;;39.03;7.57;;;;;;;-143.98;100.00;68091.63;5100000;28;20071;-81
2021/04/23 00:16:36;;;;;;;22.15;8.10;;;;;;;-143.98;100.00;68091.63;5067312;28;20052;-81
2021/04/23 00:19:20;;;;;;;31.88;8.90;;;;;;;-143.98;100.00;68091.63;5081790;28;20049;-81
2021/04/23 00:21:47;;;;;;;18.65;8.02;;;;;;;-143.98;100.00;68091.63;5066533;28;20048;-81
2021/04/23 00:24:14;;;;;;;20.75;8.45;;;;;;;-143.98;100.00;68091.63;5066559;28;20091;-81
2021/04/23 00:26:50;;;;;;;26.75;8.82;;;;;;;-143.98;100.00;68091.63;5082309;28;20052;-81
2021/04/23 00:29:17;;;;;;;29.95;9.00;;;;;;;-143.98;100.00;68091.63;5068303;28;20049;-81
2021/04/23 00:34:33;;;;;;;20.55;8.07;;;;;;;-143.98;100.00;68091.63;5086916;28;20060;-81
2021/04/23 00:36:59;;;;;;;21.73;7.35;;;;;;;-143.98;100.00;68091.63;5086255;28;20062;-81
2021/04/23 00:39:27;;;;;;;43.33;10.45;;;;;;;-143.98;100.00;68091.63;5088600;28;20057;-81
2021/04/23 00:41:56;;;;;;;24.15;8.52;;;;;;;-143.98;100.00;68091.63;5091597;28;20090;-80
2021/04/23 00:44:23;;;;;;;25.20;8.65;;;;;;;-143.98;100.00;68091.63;5025811;28;20060;-80
2021/04/23 00:46:49;;;;;;;25.17;9.32;;;;;;;-143.98;100.00;68091.63;5074981;28;20048;-80
2021/04/23 00:49:15;;;;;;;19.73;8.73;;;;;;;-143.98;100.00;68091.63;5089093;28;20044;-82
2021/04/23 00:51:50;;;;;;;29.55;9.65;;;;;;;-143.98;100.00;68091.63;5068097;28;20053;-81
2021/04/23 00:54:17;;;;;;;22.63;8.75;;;;;;;-143.98;100.00;68091.63;5067912;28;20056;-81
2021/04/23 00:56:43;;;;;;;24.35;8.25;;;;;;;-143.98;100.00;68091.63;5066343;28;20057;-80
2021/04/23 00:59:12;;;;;;;26.42;8.70;;;;;;;-143.98;100.00;68091.63;5084608;28;20443;-80
2021/04/23 01:02:07;;;;;;;24.65;8.23;;;;;;;-143.98;100.00;68091.63;5074558;28;20067;-80
2021/04/23 01:04:34;;;;;;;17.30;8.82;;;;;;;-143.98;100.00;68091.63;5092773;28;20099;-80
2021/04/23 01:07:00;;;;;;;24.15;9.18;;;;;;;-143.98;100.00;68091.63;5092213;28;20111;-81
2021/04/23 01:09:30;;;;;;;31.90;9.82;;;;;;;-143.98;100.00;68091.63;5087696;28;20048;-81
2021/04/23 01:11:59;;;;;;;28.85;8.90;;;;;;;-143.98;100.00;68091.63;5065339;28;20057;-80
2021/04/23 01:14:26;;;;;;;21.90;7.95;;;;;;;-143.98;100.00;68091.63;5082918;28;20048;-80
2021/04/23 01:16:54;;;;;;;22.60;8.18;;;;;;;-143.98;100.00;68091.63;5066765;28;20060;-80
2021/04/23 01:19:32;;;;;;;25.30;8.40;;;;;;;-143.98;100.00;68091.63;5081878;28;20072;-80
2021/04/23 01:22:01;;;;;;;28.30;9.07;;;;;;;-143.98;100.00;68091.63;5082639;28;20079;-80
2021/04/23 01:24:28;;;;;;;26.23;7.22;;;;;;;-143.98;100.00;68091.63;5081962;28;20064;-80
2021/04/23 01:26:58;;;;;;;19.67;7.43;;;;;;;-143.98;100.00;68091.63;5064936;28;20056;-79
2021/04/23 01:29:34;;;;;;;23.65;8.18;;;;;;;-143.98;100.00;68091.63;5064761;28;20460;-80
2021/04/23 01:32:00;;;;;;;25.90;8.88;;;;;;;-143.98;100.00;68091.63;5081683;28;20057;-81
2021/04/23 01:34:48;;;;;;;20.92;7.03;;;;;;;-143.98;100.00;68091.63;5082004;28;20071;-81
2021/04/23 01:37:18;;;;;;;20.02;7.53;;;;;;;-143.98;100.00;68091.63;5082000;28;20084;-80
2021/04/23 01:39:49;;;;;;;32.95;7.93;;;;;;;-143.98;100.00;68091.63;5086274;28;20091;-81
2021/04/23 01:42:39;;;;;;;23.08;7.95;;;;;;;-143.98;100.00;68091.63;5086279;28;20409;-80
2021/04/23 01:45:07;;;;;;;29.27;8.10;;;;;;;-143.98;100.00;68091.63;5069964;28;20067;-81
2021/04/23 01:47:37;;;;;;;24.80;8.32;;;;;;;-143.98;100.00;68091.63;5085852;28;20253;-81
2021/04/23 01:50:16;;;;;;;26.55;7.93;;;;;;;-143.98;100.00;68091.63;5086608;28;20056;-80
2021/04/23 01:52:48;;;;;;;31.42;8.43;;;;;;;-143.98;100.00;68091.63;5095051;28;20060;-80
2021/04/23 01:55:19;;;;;;;33.95;9.88;;;;;;;-143.98;100.00;68091.63;5094427;28;20057;-82
2021/04/23 01:57:49;;;;;;;23.10;7.18;;;;;;;-143.98;100.00;68091.63;5071729;28;20078;-81
2021/04/23 02:00:22;;;;;;;31.05;8.73;;;;;;;-143.98;100.00;68091.63;5088039;28;20052;-80
2021/04/23 02:02:55;;;;;;;19.50;7.82;;;;;;;-143.98;100.00;68091.63;5088517;28;20060;-80
2021/04/23 02:05:24;;;;;;;20.60;7.65;;;;;;;-143.98;100.00;68091.63;5091018;28;20052;-80
2021/04/23 02:07:52;;;;;;;23.33;7.30;;;;;;;-143.98;100.00;68091.63;5084655;28;20116;-80
2021/04/23 02:10:27;;;;;;;22.20;7.53;;;;;;;-143.98;100.00;68091.63;5084936;28;20331;-81
2021/04/23 02:12:54;;;;;;;23.77;8.10;;;;;;;-143.98;100.00;68091.63;5084297;28;20094;-80
2021/04/23 02:15:31;;;;;;;26.05;6.78;;;;;;;-143.98;100.00;68091.63;5083451;28;20056;-81
2021/04/23 02:17:59;;;;;;;15.25;5.88;;;;;;;-143.98;100.00;68091.63;5087039;28;20083;-80
2021/04/23 02:20:30;;;;;;;22.17;7.30;;;;;;;-143.98;100.00;68091.63;5069979;28;20116;-80
2021/04/23 02:22:59;;;;;;;19.15;6.90;;;;;;;-143.98;100.00;68091.63;5085778;28;20057;-80
2021/04/23 02:25:27;;;;;;;21.17;6.93;;;;;;;-143.98;100.00;68091.63;5085801;28;20056;-80
2021/04/23 02:27:57;;;;;;;20.77;6.82;;;;;;;-143.98;100.00;68091.63;5086173;28;20110;-81
2021/04/23 02:30:31;;;;;;;18.40;6.55;;;;;;;-143.98;100.00;68091.63;5067783;28;20063;-81
2021/04/23 02:32:59;;;;;;;18.80;6.90;;;;;;;-143.98;100.00;68091.63;5084742;28;20056;-80
2021/04/23 02:35:26;;;;;;;22.45;6.50;;;;;;;-143.98;100.00;68091.63;5079754;28;20056;-80
2021/04/23 02:37:54;;;;;;;20.85;6.75;;;;;;;-143.98;100.00;68091.63;5064322;28;20080;-80
2021/04/23 02:40:25;;;;;;;19.83;6.75;;;;;;;-143.98;100.00;68091.63;5065645;28;20048;-80
2021/04/23 02:42:54;;;;;;;14.15;6.20;;;;;;;-143.98;100.00;68091.63;5065075;28;20064;-81
2021/04/23 02:45:28;;;;;;;20.23;6.80;;;;;;;-143.98;100.00;68091.63;5047690;28;20514;-81
2021/04/23 02:47:55;;;;;;;24.05;6.20;;;;;;;-143.98;100.00;68091.63;5061278;28;20061;-80
2021/04/23 02:50:26;;;;;;;20.65;6.93;;;;;;;-143.98;100.00;68091.63;5046295;28;20049;-81
2021/04/23 02:52:54;;;;;;;25.05;6.43;;;;;;;-143.98;100.00;68091.63;5062765;28;20080;-82
2021/04/23 02:55:21;;;;;;;14.23;6.05;;;;;;;-143.98;100.00;68091.63;5063750;28;20053;-81
2021/04/23 02:57:58;;;;;;;31.10;7.00;;;;;;;-143.98;100.00;68091.63;5064922;28;20060;-81
2021/04/23 03:00:29;;;;;;;19.38;6.60;;;;;;;-143.98;100.00;68091.63;5063441;28;20083;-82
2021/04/23 03:02:59;;;;;;;17.60;6.57;;;;;;;-143.98;100.00;68091.63;5070227;28;20041;-82
2021/04/23 03:05:26;;;;;;;18.50;6.45;;;;;;;-143.98;100.00;68091.63;5055806;28;20210;-81
2021/04/23 03:07:53;;;;;;;16.50;6.07;;;;;;;-143.98;100.00;68091.63;5089204;28;20063;-82
2021/04/23 03:10:26;;;;;;;19.05;6.13;;;;;;;-143.98;100.00;68091.63;5065850;28;20076;-79
2021/04/23 03:12:55;;;;;;;23.42;6.78;;;;;;;-143.98;100.00;68091.63;5064214;28;20048;-80
2021/04/23 03:15:24;;;;;;;19.02;6.50;;;;;;;-143.98;100.00;68091.63;5068326;28;20086;-79
2021/04/23 03:17:58;;;;;;;15.52;6.20;;;;;;;-143.98;100.00;68091.63;5074614;28;20044;-81
2021/04/23 03:20:25;;;;;;;19.27;6.45;;;;;;;-143.98;100.00;68091.63;5075026;28;20048;-80
2021/04/23 03:22:52;;;;;;;17.95;7.00;;;;;;;-143.98;100.00;68091.63;5073734;28;20112;-81
2021/04/23 03:25:19;;;;;;;23.05;6.28;;;;;;;-143.98;100.00;68091.63;5054125;28;20067;-81
2021/04/23 03:27:45;;;;;;;27.58;7.10;;;;;;;-143.98;100.00;68091.63;5070927;28;20084;-80
2021/04/23 03:30:18;;;;;;;20.75;6.85;;;;;;;-143.98;100.00;68091.63;5069279;28;20439;-80
2021/04/23 03:32:46;;;;;;;23.60;6.47;;;;;;;-143.98;100.00;68091.63;5037985;28;20052;-80
2021/04/23 03:35:13;;;;;;;22.58;6.82;;;;;;;-143.98;100.00;68091.63;5062599;28;20055;-81
2021/04/23 03:37:42;;;;;;;18.02;6.47;;;;;;;-143.98;100.00;68091.63;5045216;28;20065;-81
2021/04/23 03:40:10;;;;;;;22.63;7.03;;;;;;;-143.98;100.00;68091.63;5045048;28;20139;-81
2021/04/23 03:42:39;;;;;;;19.85;6.88;;;;;;;-143.98;100.00;68091.63;5062650;28;20079;-81
2021/04/23 03:45:11;;;;;;;20.30;7.05;;;;;;;-143.98;100.00;68091.63;5066001;28;20057;-80
2021/04/23 03:47:37;;;;;;;19.98;5.75;;;;;;;-143.98;100.00;68091.63;5068942;28;20068;-80
2021/04/23 03:50:06;;;;;;;25.08;8.45;;;;;;;-143.98;100.00;68091.63;5068516;28;20057;-81
2021/04/23 03:52:33;;;;;;;32.33;6.97;;;;;;;-143.98;100.00;68091.63;5047309;28;20064;-81
2021/04/23 03:55:07;;;;;;;24.50;6.45;;;;;;;-143.98;100.00;68091.63;5046999;28;20390;-81
2021/04/23 03:57:40;;;;;;;19.48;6.97;;;;;;;-143.98;100.00;68091.63;5063127;28;20060;-80
2021/04/23 04:00:10;;;;;;;16.73;6.65;;;;;;;-143.98;100.00;68091.63;5062548;28;20703;-80
2021/04/23 04:02:37;;;;;;;20.55;7.25;;;;;;;-143.98;100.00;68091.63;5069328;28;20044;-80
2021/04/23 04:05:05;;;;;;;18.75;7.65;;;;;;;-143.98;100.00;68091.63;5054892;28;20107;-80
2021/04/23 04:07:44;;;;;;;26.95;8.38;;;;;;;-143.98;100.00;68091.63;5046388;28;20053;-80
2021/04/23 04:10:11;;;;;;;22.75;7.05;;;;;;;-143.98;100.00;68091.63;5060243;28;20360;-80
2021/04/23 04:12:37;;;;;;;22.42;6.95;;;;;;;-143.98;100.00;68091.63;5043914;28;20053;-81
2021/04/23 04:15:05;;;;;;;20.52;7.07;;;;;;;-143.98;100.00;68091.63;5060365;28;20064;-80
2021/04/23 04:17:31;;;;;;;23.38;7.05;;;;;;;-143.98;100.00;68091.63;5061113;28;20065;-80
2021/04/23 04:19:58;;;;;;;27.05;8.00;;;;;;;-143.98;100.00;68091.63;5059072;28;20060;-80
2021/04/23 04:22:25;;;;;;;19.70;6.93;;;;;;;-143.98;100.00;68091.63;5059692;28;20057;-81
2021/04/23 04:24:55;;;;;;;21.00;6.70;;;;;;;-143.98;100.00;68091.63;5073273;28;20068;-81
2021/04/23 04:27:21;;;;;;;22.23;7.38;;;;;;;-143.98;100.00;68091.63;5080517;28;20056;-81
2021/04/23 04:29:48;;;;;;;20.65;7.22;;;;;;;-143.98;100.00;68091.63;5059687;28;20053;-80
2021/04/23 04:32:16;;;;;;;19.17;7.35;;;;;;;-143.98;100.00;68091.63;5079345;28;20087;-81
2021/04/23 04:34:45;;;;;;;18.70;6.57;;;;;;;-143.98;100.00;68091.63;5062543;28;20399;-81
2021/04/23 04:37:12;;;;;;;19.98;7.15;;;;;;;-143.98;100.00;68091.63;5066056;28;20057;-81
2021/04/23 04:39:39;;;;;;;22.55;7.18;;;;;;;-143.98;100.00;68091.63;5081177;28;20257;-81
2021/04/23 04:42:11;;;;;;;20.00;6.82;;;;;;;-143.98;100.00;68091.63;5080737;28;20052;-81
2021/04/23 04:44:38;;;;;;;21.17;6.65;;;;;;;-143.98;100.00;68091.63;5063421;28;20118;-80
2021/04/23 04:47:04;;;;;;;21.63;7.25;;;;;;;-143.98;100.00;68091.63;5078965;28;20068;-82
2021/04/23 04:49:30;;;;;;;24.08;7.03;;;;;;;-143.98;100.00;68091.63;5062419;28;20052;-81
2021/04/23 04:51:57;;;;;;;19.88;6.40;;;;;;;-143.98;100.00;68091.63;5063311;28;20052;-80
2021/04/23 04:54:23;;;;;;;16.80;6.45;;;;;;;-143.98;100.00;68091.63;5062561;28;20064;-81
2021/04/23 04:56:50;;;;;;;21.13;6.30;;;;;;;-143.98;100.00;68091.63;5077788;28;20063;-81
2021/04/23 04:59:18;;;;;;;19.67;6.18;;;;;;;-143.98;100.00;68091.63;5077921;28;20060;-81
2021/04/23 05:01:51;;;;;;;24.90;6.43;;;;;;;-143.98;100.00;68091.63;5060084;28;20063;-81
2021/04/23 05:04:18;;;;;;;23.77;5.90;;;;;;;-143.98;100.00;68091.63;5077035;28;20463;-81
2021/04/23 05:06:44;;;;;;;28.85;7.35;;;;;;;-143.98;100.00;68091.63;5076460;28;20056;-80
2021/04/23 05:09:10;;;;;;;31.50;6.85;;;;;;;-143.98;100.00;68091.63;5060001;28;20061;-80
2021/04/23 05:11:37;;;;;;;18.42;6.72;;;;;;;-143.98;100.00;68091.63;5060231;28;20344;-79
2021/04/23 05:14:03;;;;;;;45.63;11.27;;;;;;;-143.98;100.00;68091.63;5063463;28;20053;-82
2021/04/23 05:16:30;;;;;;;19.50;6.13;;;;;;;-143.98;100.00;68091.63;5063670;28;20087;-81
2021/04/23 05:18:56;;;;;;;17.90;6.10;;;;;;;-143.98;100.00;68091.63;5082305;28;20059;-81
2021/04/23 05:21:24;;;;;;;22.83;6.68;;;;;;;-143.98;100.00;68091.63;5080754;28;20052;-82
2021/04/23 05:23:50;;;;;;;15.82;6.47;;;;;;;-143.98;100.00;68091.63;5111379;28;20098;-81
2021/04/23 05:26:17;;;;;;;20.52;6.35;;;;;;;-143.98;100.00;68091.63;5087037;28;20106;-81
2021/04/23 05:28:43;;;;;;;23.63;6.60;;;;;;;-143.98;100.00;68091.63;5069303;28;20052;-80
2021/04/23 05:31:11;;;;;;;14.20;5.63;;;;;;;-143.98;100.00;68091.63;5068701;28;20431;-81
2021/04/23 05:33:37;;;;;;;22.38;6.07;;;;;;;-143.98;100.00;68091.63;5090942;28;20090;-82
2021/04/23 05:36:04;;;;;;;15.85;6.40;;;;;;;-143.98;100.00;68091.63;5073990;28;20146;-81
2021/04/23 05:38:30;;;;;;;16.27;5.57;;;;;;;-143.98;100.00;68091.63;5066842;28;20052;-82
2021/04/23 05:40:57;;;;;;;12.15;5.07;;;;;;;-143.98;100.00;68091.63;5101145;28;20093;-81
2021/04/23 05:43:23;;;;;;;16.05;5.85;;;;;;;-143.98;100.00;68091.63;5099435;28;20381;-81
2021/04/23 05:45:50;;;;;;;19.10;5.53;;;;;;;-143.98;100.00;68091.63;5087565;28;20173;-81
2021/04/23 05:48:17;;;;;;;12.77;5.10;;;;;;;-143.98;100.00;68091.63;5071883;28;20071;-80
2021/04/23 05:50:43;;;;;;;21.75;4.80;;;;;;;-143.98;100.00;68091.63;5103799;28;20048;-80
2021/04/23 05:53:10;;;;;;;15.90;4.68;;;;;;;-143.98;100.00;68091.63;5064611;28;20052;-81
2021/04/23 05:55:36;;;;;;;17.42;4.90;;;;;;;-143.98;100.00;68091.63;5083905;28;20056;-81
2021/04/23 05:58:07;;;;;;;14.65;5.00;;;;;;;-143.98;100.00;68091.63;5101680;28;20052;-81
2021/04/23 06:00:42;;;;;;;14.05;4.38;;;;;;;-143.98;100.00;68091.63;5100231;28;20060;-80
2021/04/23 06:03:08;;;;;;;12.25;5.10;;;;;;;-143.98;100.00;68091.63;5081464;28;20051;-81
2021/04/23 06:05:36;;;;;;;13.20;4.20;;;;;;;-143.98;100.00;68091.63;5063625;28;20056;-81
2021/04/23 06:08:07;;;;;;;11.55;4.85;;;;;;;-143.98;100.00;68091.63;5101182;28;20070;-81
2021/04/23 06:10:39;;;;;;;17.10;5.03;;;;;;;-143.98;100.00;68091.63;5087801;28;20055;-80
2021/04/23 06:13:05;;;;;;;17.02;5.57;;;;;;;-143.98;100.00;68091.63;5083162;28;20052;-81
2021/04/23 06:15:35;;;;;;;12.63;4.30;;;;;;;-143.98;100.00;68091.63;5091816;28;20075;-81
2021/04/23 06:18:04;;;;;;;21.38;5.28;;;;;;;-143.98;100.00;68091.63;5080960;28;20409;-81
2021/04/23 06:20:33;;;;;;;14.73;5.15;;;;;;;-143.98;100.00;68091.63;5080933;28;20249;-81
2021/04/23 06:23:00;;;;;;;13.65;4.72;;;;;;;-143.98;100.00;68091.63;5078474;28;20126;-81
2021/04/23 06:25:27;;;;;;;13.98;4.68;;;;;;;-143.98;100.00;68091.63;5077482;28;20052;-82
2021/04/23 06:27:54;;;;;;;16.15;5.38;;;;;;;-143.98;100.00;68091.63;5077597;28;20052;-82
2021/04/23 06:30:24;;;;;;;14.85;5.05;;;;;;;-143.98;100.00;68091.63;5080828;28;20079;-81
2021/04/23 06:32:50;;;;;;;12.13;4.20;;;;;;;-143.98;100.00;68091.63;5079671;28;20270;-81
2021/04/23 06:35:19;;;;;;;15.52;4.72;;;;;;;-143.98;100.00;68091.63;5076445;28;20072;-80
2021/04/23 06:37:46;;;;;;;16.13;5.18;;;;;;;-143.98;100.00;68091.63;5075859;28;20061;-81
2021/04/23 06:40:13;;;;;;;15.52;4.35;;;;;;;-143.98;100.00;68091.63;5057426;28;20053;-81
2021/04/23 06:42:39;;;;;;;20.15;4.75;;;;;;;-143.98;100.00;68091.63;5056254;28;20092;-81
2021/04/23 06:45:13;;;;;;;17.20;4.95;;;;;;;-143.98;100.00;68091.63;5069013;28;20049;-81
2021/04/23 06:47:42;;;;;;;21.98;4.95;;;;;;;-143.98;100.00;68091.63;5056327;28;20243;-82
2021/04/23 06:50:10;;;;;;;14.32;4.28;;;;;;;-143.98;100.00;68091.63;5069150;28;20053;-81
2021/04/23 06:52:40;;;;;;;23.60;4.53;;;;;;;-143.98;100.00;68091.63;5069027;28;20064;-81
2021/04/23 06:55:17;;;;;;;21.63;5.45;;;;;;;-143.98;100.00;68091.63;5057602;28;20074;-81
2021/04/23 06:57:44;;;;;;;19.98;4.35;;;;;;;-143.98;100.00;68091.63;5070921;28;20052;-81
2021/04/23 07:00:24;;;;;;;22.95;5.97;;;;;;;-143.98;100.00;68091.63;5056868;28;20063;-80
2021/04/23 07:02:58;;;;;;;14.10;4.40;;;;;;;-143.98;100.00;68091.63;5058513;28;20060;-80
2021/04/23 07:05:25;;;;;;;24.70;5.15;;;;;;;-143.98;100.00;68091.63;5087617;28;20047;-81
2021/04/23 07:07:52;;;;;;;11.13;3.92;;;;;;;-143.98;100.00;68091.63;5064268;28;20076;-80
2021/04/23 07:10:26;;;;;;;13.48;3.83;;;;;;;-143.98;100.00;68091.63;5075319;28;20151;-80
2021/04/23 07:12:53;;;;;;;20.48;4.10;;;;;;;-143.98;100.00;68091.63;5073259;28;20079;-80
2021/04/23 07:15:22;;;;;;;24.33;5.00;;;;;;;-143.98;100.00;68091.63;5076097;28;20075;-80
2021/04/23 07:17:56;;;;;;;15.68;4.32;;;;;;;-143.98;100.00;68091.63;5073670;28;20048;-81
2021/04/23 07:20:34;;;;;;;11.90;4.47;;;;;;;-143.98;100.00;68091.63;5071649;28;20399;-80
2021/04/23 07:23:01;;;;;;;17.50;4.57;;;;;;;-143.98;100.00;68091.63;5073032;28;20053;-81
2021/04/23 07:25:27;;;;;;;19.27;3.72;;;;;;;-143.98;100.00;68091.63;5030975;28;20287;-81
2021/04/23 07:28:00;;;;;;;21.77;4.28;;;;;;;-143.98;100.00;68091.63;5052823;28;20077;-82
2021/04/23 07:30:30;;;;;;;12.32;3.28;;;;;;;-143.98;100.00;68091.63;5064697;28;20189;-82
2021/04/23 07:32:57;;;;;;;15.80;3.75;;;;;;;-143.98;100.00;68091.63;5042652;28;20045;-81
2021/04/23 07:35:24;;;;;;;14.55;3.67;;;;;;;-143.98;100.00;68091.63;5057608;28;20432;-81
2021/04/23 07:37:58;;;;;;;11.32;3.30;;;;;;;-143.98;100.00;68091.63;5051504;28;20099;-81
2021/04/23 07:40:25;;;;;;;14.38;3.65;;;;;;;-143.98;100.00;68091.63;5069260;28;20080;-81
2021/04/23 07:42:51;;;;;;;21.52;4.45;;;;;;;-143.98;100.00;68091.63;5057994;28;20116;-81
2021/04/23 07:45:24;;;;;;;11.30;3.30;;;;;;;-143.98;100.00;68091.63;5058835;28;20068;-81
2021/04/23 07:47:50;;;;;;;17.40;3.30;;;;;;;-143.98;100.00;68091.63;5054492;28;20071;-82
2021/04/23 07:50:20;;;;;;;12.70;3.20;;;;;;;-143.98;100.00;68091.63;5073786;28;20079;-82
2021/04/23 07:52:55;;;;;;;14.35;2.20;;;;;;;-143.98;100.00;68091.63;5080150;28;20052;-80
2021/04/23 07:55:30;;;;;;;11.82;3.08;;;;;;;-143.98;100.00;68091.63;5031983;28;20037;-80
2021/04/23 07:57:58;;;;;;;12.07;2.87;;;;;;;-143.98;100.00;68091.63;5056171;28;20102;-81
2021/04/23 08:00:25;;;;;;;10.05;2.78;;;;;;;-143.98;100.00;68091.63;5073403;28;20114;-81
2021/04/23 08:02:53;;;;;;;12.13;2.90;;;;;;;-143.98;100.00;68091.63;5067361;28;20445;-80
2021/04/23 08:05:27;;;;;;;14.55;2.33;;;;;;;-143.98;100.00;68091.63;5061001;28;20106;-81
2021/04/23 08:08:04;;;;;;;16.02;2.92;;;;;;;-143.98;100.00;68091.63;5059879;28;20106;-81
2021/04/23 08:10:31;;;;;;;11.65;3.15;;;;;;;-143.98;100.00;68091.63;5043031;28;20049;-81
2021/04/23 08:12:59;;;;;;;21.90;3.15;;;;;;;-143.98;100.00;68091.63;5057727;28;20240;-82
2021/04/23 08:15:25;;;;;;;11.95;2.65;;;;;;;-143.98;100.00;68091.63;5055812;28;20048;-82
2021/04/23 08:17:53;;;;;;;17.25;2.92;;;;;;;-143.98;100.00;68091.63;5067268;28;20064;-82
2021/04/23 08:20:20;;;;;;;13.27;3.15;;;;;;;-143.98;100.00;68091.63;5062098;28;20074;-81
2021/04/23 08:22:47;;;;;;;9.73;2.78;;;;;;;-143.98;100.00;68091.63;5049038;28;20401;-81
2021/04/23 08:25:16;;;;;;;14.23;3.20;;;;;;;-143.98;100.00;68091.63;5061457;28;20060;-81
2021/04/23 08:27:45;;;;;;;13.18;3.42;;;;;;;-143.98;100.00;68091.63;5037728;28;20045;-81
2021/04/23 08:30:12;;;;;;;15.23;3.28;;;;;;;-143.98;100.00;68091.63;5035271;28;20306;-82
2021/04/23 08:32:42;;;;;;;19.88;3.05;;;;;;;-143.98;100.00;68091.63;5055201;28;20173;-81
2021/04/23 08:35:10;;;;;;;18.17;3.75;;;;;;;-143.98;100.00;68091.63;5071516;28;20120;-81
2021/04/23 08:37:40;;;;;;;15.20;2.70;;;;;;;-143.98;100.00;68091.63;5044333;28;20052;-81
2021/04/23 08:40:12;;;;;;;10.57;2.42;;;;;;;-143.98;100.00;68091.63;5061296;28;20185;-81
2021/04/23 08:42:51;;;;;;;11.05;2.70;;;;;;;-143.98;100.00;68091.63;5072413;28;20115;-81
2021/04/23 08:45:20;;;;;;;15.73;2.58;;;;;;;-143.98;100.00;68091.63;5079839;28;20336;-82
2021/04/23 08:47:50;;;;;;;13.23;2.80;;;;;;;-143.98;100.00;68091.63;5086206;28;20041;-81
2021/04/23 08:50:21;;;;;;;14.63;2.60;;;;;;;-143.98;100.00;68091.63;5081637;28;20052;-82
2021/04/23 08:52:48;;;;;;;8.90;2.08;;;;;;;-143.98;100.00;68091.63;5037565;28;20049;-82
2021/04/23 08:55:17;;;;;;;12.35;1.90;;;;;;;-143.98;100.00;68091.63;5036791;28;20326;-82
2021/04/23 08:58:01;;;;;;;;;;;;;;;-143.98;100.00;68091.63;5045738;28;20125;-81
2021/04/23 09:00:27;;;;;;;14.65;2.08;;;;;;;-143.98;100.00;68091.63;5023873;28;19933;-81
2021/04/23 09:03:00;;;;;;;17.48;3.05;;;;;;;-143.98;100.00;68091.63;5037022;28;20394;-83
2021/04/23 09:05:37;;;;;;;10.52;2.65;;;;;;;-143.98;100.00;68091.63;5028593;28;20061;-82
2021/04/23 09:08:24;;;;;;;15.43;2.35;;;;;;;-143.98;100.00;68091.63;5045911;28;20058;-82
2021/04/23 09:10:51;;;;;;;9.70;2.83;;;;;;;-143.98;100.00;68091.63;5062780;28;20053;-81
2021/04/23 09:13:17;;;;;;;16.33;2.95;;;;;;;-143.98;100.00;68091.63;5065530;28;20446;-82
2021/04/23 09:15:47;;;;;;;12.63;2.75;;;;;;;-143.98;100.00;68091.63;5049199;28;20084;-81
2021/04/23 09:18:17;;;;;;;13.38;2.47;;;;;;;-143.98;100.00;68091.63;5046276;28;20049;-82
2021/04/23 09:20:46;;;;;;;21.42;2.88;;;;;;;-143.98;100.00;68091.63;5059375;28;20122;-82
2021/04/23 09:23:17;;;;;;;9.23;1.80;;;;;;;-143.98;100.00;68091.63;5060214;28;20079;-82
2021/04/23 09:25:57;;;;;;;9.77;1.90;;;;;;;-143.98;100.00;68091.63;5083391;28;20476;-81
2021/04/23 09:28:42;;;;;;;11.43;2.28;;;;;;;-143.98;100.00;68091.63;5081621;28;20105;-83
2021/04/23 09:31:30;;;;;;;16.40;2.42;;;;;;;-143.98;100.00;68091.63;5078436;28;20052;-82
2021/04/23 09:34:02;;;;;;;19.48;3.33;;;;;;;-143.98;100.00;68091.63;5072724;28;20064;-84
2021/04/23 09:36:51;;;;;;;13.57;2.88;;;;;;;-143.98;100.00;68091.63;5068285;28;20056;-82
2021/04/23 09:39:21;;;;;;;11.90;3.15;;;;;;;-143.98;100.00;68091.63;5098222;28;20079;-82
2021/04/23 09:41:53;;;;;;;16.48;2.58;;;;;;;-143.98;100.00;68091.63;5062983;28;20142;-82
2021/04/23 09:44:31;;;;;;;10.48;2.53;;;;;;;-143.98;100.00;68091.63;5081201;28;20078;-81
2021/04/23 09:47:00;;;;;;;11.20;2.60;;;;;;;-143.98;100.00;68091.63;5078683;28;20056;-81
2021/04/23 09:49:28;;;;;;;9.13;3.55;;;;;;;-143.98;100.00;68091.63;5079734;28;20052;-81
2021/04/23 09:51:55;;;;;;;11.35;2.55;;;;;;;-143.98;100.00;68091.63;5097207;28;20068;-83
2021/04/23 09:54:24;;;;;;;12.60;2.42;;;;;;;-143.98;100.00;68091.63;5079800;28;20121;-82
2021/04/23 09:56:54;;;;;;;11.65;2.70;;;;;;;-143.98;100.00;68091.63;5063372;28;20091;-81
2021/04/23 09:59:27;;;;;;;8.32;2.05;;;;;;;-143.98;100.00;68091.63;5102679;28;20056;-82
2021/04/23 10:01:58;;;;;;;12.15;2.10;;;;;;;-143.98;100.00;68091.63;5086124;28;20044;-82
2021/04/23 10:04:33;;;;;;;14.38;2.08;;;;;;;-143.98;100.00;68091.63;5071011;28;20083;-84
2021/04/23 10:07:20;;;;;;;16.23;2.27;;;;;;;-143.98;100.00;68091.63;5096059;28;20039;-82
2021/04/23 10:10:06;;;;;;;15.10;2.80;;;;;;;-143.98;100.00;68091.63;5087167;28;20940;-81
2021/04/23 10:12:44;;;;;;;14.55;2.97;;;;;;;-143.98;100.00;68091.63;5063992;28;20056;-81
2021/04/23 10:15:19;;;;;;;8.43;2.60;;;;;;;-143.98;100.00;68091.63;5080115;28;20060;-82
2021/04/23 10:17:51;;;;;;;12.82;2.60;;;;;;;-143.98;100.00;68091.63;5046789;28;20359;-82
2021/04/23 10:20:21;;;;;;;12.35;2.47;;;;;;;-143.98;100.00;68091.63;5054631;28;20048;-81
2021/04/23 10:22:48;;;;;;;10.32;2.42;;;;;;;-143.98;100.00;68091.63;5079645;28;20346;-82
2021/04/23 10:25:17;;;;;;;7.82;1.90;;;;;;;-143.98;100.00;68091.63;5059828;28;20052;-82
2021/04/23 10:27:45;;;;;;;11.60;2.25;;;;;;;-143.98;100.00;68091.63;5060124;28;20052;-81
2021/04/23 10:30:24;;;;;;;13.75;2.40;;;;;;;-143.98;100.00;68091.63;5062099;28;20066;-82
2021/04/23 10:33:11;;;;;;;11.55;2.58;;;;;;;-143.98;100.00;68091.63;5076610;28;20118;-82
2021/04/23 10:35:41;;;;;;;17.65;2.55;;;;;;;-143.98;100.00;68091.63;5066984;28;20052;-81
2021/04/23 10:38:13;;;;;;;11.32;2.20;;;;;;;-143.98;100.00;68091.63;5081483;28;20295;-81
2021/04/23 10:40:42;;;;;;;11.38;2.17;;;;;;;-143.98;100.00;68091.63;5062052;28;20327;-81
2021/04/23 10:43:17;;;;;;;19.05;2.58;;;;;;;-143.98;100.00;68091.63;5083911;28;20056;-81
2021/04/23 10:45:59;;;;;;;11.17;3.23;;;;;;;-143.98;100.00;68091.63;5061397;28;20177;-81
2021/04/23 10:48:39;;;;;;;7.72;1.85;;;;;;;-143.98;100.00;68091.63;5093251;28;20509;-81
2021/04/23 10:51:18;;;;;;;8.23;2.30;;;;;;;-143.98;100.00;68091.63;5061281;28;20123;-82
2021/04/23 10:53:50;;;;;;;16.50;3.08;;;;;;;-143.98;100.00;68091.63;5081875;28;20369;-82
2021/04/23 10:56:22;;;;;;;10.68;2.67;;;;;;;-143.98;100.00;68091.63;5064889;28;20056;-82
2021/04/23 10:58:48;;;;;;;13.13;2.40;;;;;;;-143.98;100.00;68091.63;5081176;28;20266;-82
2021/04/23 11:01:15;;;;;;;10.52;2.25;;;;;;;-143.98;100.00;68091.63;5063572;28;20048;-82
2021/04/23 11:03:42;;;;;;;11.55;2.13;;;;;;;-143.98;100.00;68091.63;5080093;28;20533;-82
2021/04/23 11:06:12;;;;;;;11.93;1.73;;;;;;;-143.98;100.00;68091.63;5061139;28;20052;-81
2021/04/23 11:09:03;;;;;;;7.80;1.77;;;;;;;-143.98;100.00;68091.63;5059993;28;20162;-82
2021/04/23 11:11:34;;;;;;;8.82;1.95;;;;;;;-143.98;100.00;68091.63;5085264;28;20079;-81
2021/04/23 11:14:26;;;;;;;11.18;2.75;;;;;;;-143.98;100.00;68091.63;5058317;28;20052;-83
2021/04/23 11:17:18;;;;;;;12.68;2.83;;;;;;;-143.98;100.00;68091.63;5079501;28;20048;-82
2021/04/23 11:20:05;;;;;;;11.52;2.20;;;;;;;-143.98;100.00;68091.63;5080453;28;20123;-82